CheckWX is a tool to help pilots better visualize weather data.  It is not intended as a substitute for an official pre-flight weather briefing.

11:38:07 UTC

DTTX METAR
Sfax Thyna International Airport
Sfax, Tunisia
Current

38 mins ago

DTTX 041100Z 34013KT 310V020 9999 BKN020 19/08 Q1016
Observed
Apr-4 @ 11:00 UTC
Wind
  • 340° at 13 KTS
Visibility
10,000+ meters
Flight Rules
MVFR
Cloud Levels
  • Broken at 2,000' AGL
Temperature
19°C / 66°F
Dewpoint
C / 46°F
Humidity
49%
Altimeter
30" Hg
Pressure
1015.92 hPa
Previous

2 hours ago

DTTX 041000Z 35016KT 310V020 9999 BKN020 18/09 Q1016
Observed
Apr-4 @ 10:00 UTC
Wind
  • 350° at 16 KTS
Visibility
10,000+ meters
Flight Rules
MVFR
Cloud Levels
  • Broken at 2,000' AGL
Temperature
18°C / 64°F
Dewpoint
C / 48°F
Humidity
56%
Altimeter
30" Hg
Pressure
1015.92 hPa
Previous

3 hours ago

DTTX 040900Z 33014KT 9999 SCT020 17/09 Q1016
Observed
Apr-4 @ 09:00 UTC
Wind
  • 330° at 14 KTS
Visibility
10,000+ meters
Flight Rules
VFR
Cloud Levels
  • Scattered at 2,000' AGL
Temperature
17°C / 63°F
Dewpoint
C / 48°F
Humidity
59%
Altimeter
30" Hg
Pressure
1015.92 hPa